createdAt,value
2023-03-24T00:00:22.268Z,92.96
2023-03-24T00:01:22.242Z,93.00
2023-03-24T00:02:22.277Z,93.31
2023-03-24T00:03:22.356Z,93.31
2023-03-24T00:04:22.248Z,93.41
2023-03-24T00:05:22.230Z,93.21
2023-03-24T00:06:22.182Z,93.71
2023-03-24T00:07:22.184Z,93.31
2023-03-24T00:08:22.175Z,94.02
2023-03-24T00:09:22.150Z,93.51
2023-03-24T00:10:22.157Z,94.02
2023-03-24T00:11:22.161Z,93.77
2023-03-24T00:12:22.125Z,94.23
2023-03-24T00:13:22.113Z,94.53
2023-03-24T00:14:22.140Z,94.23
2023-03-24T00:15:22.110Z,94.53
2023-03-24T00:16:22.325Z,94.33
2023-03-24T00:17:22.083Z,94.33
2023-03-24T00:18:22.066Z,93.31
2023-03-24T00:19:22.090Z,94.02
2023-03-24T00:20:32.579Z,93.82
2023-03-24T00:21:21.989Z,93.92
2023-03-24T00:22:22.048Z,94.33
2023-03-24T00:23:22.001Z,93.92
2023-03-24T00:24:22.001Z,94.23
2023-03-24T00:25:21.945Z,94.33
2023-03-24T00:26:21.979Z,94.38
2023-03-24T00:27:21.964Z,94.08
2023-03-24T00:28:21.952Z,93.88
2023-03-24T00:29:21.972Z,93.62
2023-03-24T00:30:21.903Z,93.57
2023-03-24T00:31:21.991Z,94.08
2023-03-24T00:32:21.871Z,94.23
2023-03-24T00:33:21.872Z,93.98
2023-03-24T00:34:21.922Z,94.64
2023-03-24T00:35:21.915Z,94.43
2023-03-24T00:36:21.886Z,94.74
2023-03-24T00:37:21.861Z,94.74
2023-03-24T00:38:21.871Z,94.64
2023-03-24T00:39:21.842Z,94.74
2023-03-24T00:40:21.845Z,94.64
2023-03-24T00:41:21.810Z,94.53
2023-03-24T00:42:21.828Z,95.04
2023-03-24T00:43:21.788Z,94.02
2023-03-24T00:44:21.750Z,94.43
2023-03-24T00:45:21.754Z,94.64
2023-03-24T00:46:21.825Z,94.53
2023-03-24T00:47:21.759Z,94.43
2023-03-24T00:48:21.804Z,94.38
2023-03-24T00:49:21.737Z,94.23
2023-03-24T00:50:21.736Z,94.33
2023-03-24T00:51:21.722Z,94.64
2023-03-24T00:52:21.757Z,94.29
2023-03-24T00:53:21.707Z,94.49
2023-03-24T00:54:21.692Z,94.12
2023-03-24T00:55:21.821Z,94.38
2023-03-24T00:56:21.675Z,93.82
2023-03-24T00:57:21.736Z,94.59
2023-03-24T00:58:21.641Z,94.64
2023-03-24T00:59:21.684Z,94.53
2023-03-24T01:00:21.627Z,94.49
2023-03-24T01:01:21.640Z,94.43
2023-03-24T01:02:21.673Z,94.38
2023-03-24T01:03:21.586Z,94.33
2023-03-24T01:04:21.558Z,93.98
2023-03-24T01:05:21.582Z,94.29
2023-03-24T01:06:21.562Z,94.70
2023-03-24T01:07:21.555Z,94.59
2023-03-24T01:08:21.572Z,94.33
2023-03-24T01:09:21.530Z,94.49
2023-03-24T01:10:21.559Z,94.64
2023-03-24T01:11:21.509Z,94.70
2023-03-24T01:12:21.495Z,94.02
2023-03-24T01:13:21.494Z,94.94
2023-03-24T01:14:21.483Z,95.04
2023-03-24T01:15:21.475Z,95.00
2023-03-24T01:16:21.479Z,95.10
2023-03-24T01:17:21.461Z,95.31
2023-03-24T01:18:21.477Z,95.00
2023-03-24T01:19:21.432Z,94.90
2023-03-24T01:20:21.395Z,94.79
2023-03-24T01:21:21.423Z,94.79
2023-03-24T01:22:21.437Z,94.84
2023-03-24T01:23:21.429Z,94.79
2023-03-24T01:24:21.353Z,94.79
2023-03-24T01:25:21.392Z,94.59
2023-03-24T01:26:21.352Z,94.79
2023-03-24T01:27:21.388Z,94.49
2023-03-24T01:28:21.373Z,94.70
2023-03-24T01:29:21.320Z,94.90
2023-03-24T01:30:21.359Z,94.18
2023-03-24T01:31:21.346Z,94.49
2023-03-24T01:32:21.317Z,93.77
2023-03-24T01:33:21.314Z,94.90
2023-03-24T01:34:22.268Z,95.00
2023-03-24T01:35:21.275Z,94.49
2023-03-24T01:36:21.288Z,94.49
2023-03-24T01:37:21.233Z,95.20
2023-03-24T01:38:21.271Z,95.51
2023-03-24T01:39:21.261Z,95.61
2023-03-24T01:40:21.222Z,95.20
2023-03-24T01:41:21.247Z,95.10
2023-03-24T01:42:21.212Z,95.72
2023-03-24T01:43:21.184Z,95.81
2023-03-24T01:44:21.179Z,95.81
2023-03-24T01:45:21.228Z,95.96
2023-03-24T01:46:21.273Z,95.81
2023-03-24T01:47:21.156Z,95.10
2023-03-24T01:48:21.152Z,95.20
2023-03-24T01:49:21.139Z,95.00
2023-03-24T01:50:21.134Z,95.10
2023-03-24T01:51:21.136Z,95.20
2023-03-24T01:52:21.186Z,94.90
2023-03-24T01:53:21.112Z,95.00
2023-03-24T01:54:21.099Z,95.20
2023-03-24T01:55:21.061Z,94.90
2023-03-24T01:56:21.048Z,94.49
2023-03-24T01:57:22.058Z,94.90
2023-03-24T01:58:21.077Z,94.70
2023-03-24T01:59:21.034Z,94.38
2023-03-24T02:00:21.040Z,94.29
2023-03-24T02:01:52.932Z,94.29
2023-03-24T02:02:21.032Z,94.70
2023-03-24T02:03:21.070Z,94.38
2023-03-24T02:04:21.030Z,94.79
2023-03-24T02:05:20.999Z,94.59
2023-03-24T02:06:20.958Z,94.18
2023-03-24T02:07:21.037Z,94.49
2023-03-24T02:08:20.942Z,93.98
2023-03-24T02:09:20.988Z,94.38
2023-03-24T02:10:20.949Z,94.08
2023-03-24T02:11:20.924Z,94.59
2023-03-24T02:12:20.908Z,94.79
2023-03-24T02:13:20.894Z,94.70
2023-03-24T02:14:20.918Z,94.49
2023-03-24T02:15:20.880Z,94.59
2023-03-24T02:16:20.902Z,94.59
2023-03-24T02:17:20.846Z,94.38
2023-03-24T02:18:20.863Z,94.38
2023-03-24T02:19:21.618Z,94.45
2023-03-24T02:20:20.831Z,94.08
2023-03-24T02:21:20.816Z,94.38
2023-03-24T02:22:20.798Z,94.08
2023-03-24T02:23:20.817Z,93.57
2023-03-24T02:24:20.810Z,94.08
2023-03-24T02:25:20.777Z,93.88
2023-03-24T02:26:20.775Z,93.67
2023-03-24T02:27:20.746Z,94.18
2023-03-24T02:28:20.726Z,94.08
2023-03-24T02:29:20.796Z,94.29
2023-03-24T02:30:20.710Z,93.26
2023-03-24T02:31:20.788Z,94.38
2023-03-24T02:32:20.710Z,94.70
2023-03-24T02:33:20.720Z,94.70
2023-03-24T02:34:20.691Z,94.08
2023-03-24T02:35:20.755Z,94.24
2023-03-24T02:36:20.720Z,94.45
2023-03-24T02:37:20.670Z,94.38
2023-03-24T02:38:20.698Z,94.65
2023-03-24T02:39:20.644Z,94.49
2023-03-24T02:40:20.623Z,94.29
2023-03-24T02:41:20.630Z,94.79
2023-03-24T02:42:20.635Z,94.29
2023-03-24T02:43:20.629Z,93.67
2023-03-24T02:44:20.576Z,94.18
2023-03-24T02:45:20.593Z,94.29
2023-03-24T02:46:20.586Z,93.47
2023-03-24T02:47:20.606Z,93.77
2023-03-24T02:48:20.622Z,93.77
2023-03-24T02:49:20.518Z,93.67
2023-03-24T02:50:20.585Z,94.08
2023-03-24T02:51:20.529Z,93.57
2023-03-24T02:52:20.511Z,94.79
2023-03-24T02:53:20.515Z,93.98
2023-03-24T02:54:20.493Z,93.67
2023-03-24T02:55:20.489Z,94.29
2023-03-24T02:56:20.496Z,94.38
2023-03-24T02:57:20.507Z,93.67
2023-03-24T02:58:20.458Z,93.57
2023-03-24T02:59:20.432Z,93.88
2023-03-24T03:00:20.547Z,93.77
2023-03-24T03:01:20.439Z,93.77
2023-03-24T03:02:20.496Z,94.08
2023-03-24T03:03:20.460Z,93.67
2023-03-24T03:04:20.435Z,94.02
2023-03-24T03:05:20.386Z,94.08
2023-03-24T03:06:20.416Z,93.26
2023-03-24T03:07:20.441Z,94.23
2023-03-24T03:08:20.341Z,94.53
2023-03-24T03:09:20.396Z,93.92
2023-03-24T03:10:20.336Z,94.33
2023-03-24T03:11:20.395Z,95.10
2023-03-24T03:12:20.321Z,93.82
2023-03-24T03:13:20.293Z,94.38
2023-03-24T03:14:20.283Z,94.33
2023-03-24T03:15:20.332Z,94.49
2023-03-24T03:16:20.380Z,94.29
2023-03-24T03:17:20.289Z,94.23
2023-03-24T03:18:20.254Z,94.64
2023-03-24T03:19:20.247Z,94.29
2023-03-24T03:20:20.330Z,94.23
2023-03-24T03:21:20.223Z,93.82
2023-03-24T03:22:20.218Z,94.70
2023-03-24T03:23:20.216Z,94.18
2023-03-24T03:24:20.223Z,94.64
2023-03-24T03:25:20.185Z,94.29
2023-03-24T03:26:20.185Z,94.43
2023-03-24T03:27:20.177Z,93.16
2023-03-24T03:28:20.146Z,94.29
2023-03-24T03:29:20.165Z,93.47
2023-03-24T03:30:20.150Z,94.18
2023-03-24T03:31:20.177Z,94.08
2023-03-24T03:32:20.097Z,94.38
2023-03-24T03:33:20.110Z,94.59
2023-03-24T03:34:20.087Z,94.33
2023-03-24T03:35:20.110Z,93.88
2023-03-24T03:36:20.073Z,93.77
2023-03-24T03:37:20.080Z,93.10
2023-03-24T03:38:20.073Z,94.74
2023-03-24T03:39:20.101Z,94.12
2023-03-24T03:40:20.055Z,93.66
2023-03-24T03:41:20.035Z,94.64
2023-03-24T03:42:20.050Z,94.53
2023-03-24T03:43:20.017Z,94.64
2023-03-24T03:44:19.990Z,94.64
2023-03-24T03:45:20.001Z,94.43
2023-03-24T03:46:20.069Z,94.84
2023-03-24T03:47:20.056Z,93.92
2023-03-24T03:48:19.984Z,94.64
2023-03-24T03:49:19.950Z,94.23
2023-03-24T03:50:19.962Z,94.23
2023-03-24T03:51:19.953Z,94.64
2023-03-24T03:52:19.948Z,94.23
2023-03-24T03:53:19.974Z,94.33
2023-03-24T03:54:19.894Z,94.53
2023-03-24T03:55:19.966Z,94.43
2023-03-24T03:56:19.897Z,94.64
2023-03-24T03:57:19.900Z,94.53
2023-03-24T03:58:19.898Z,94.33
2023-03-24T03:59:19.865Z,94.64
2023-03-24T04:00:19.865Z,94.53
2023-03-24T04:01:19.858Z,94.58
2023-03-24T04:02:19.834Z,94.33
2023-03-24T04:03:19.931Z,94.68
2023-03-24T04:04:19.854Z,94.68
2023-03-24T04:05:19.852Z,93.96
2023-03-24T04:06:19.833Z,94.53
2023-03-24T04:07:19.819Z,94.48
2023-03-24T04:08:19.833Z,94.64
2023-03-24T04:09:19.779Z,94.74
2023-03-24T04:10:19.728Z,94.68
2023-03-24T04:11:19.760Z,94.74
2023-03-24T04:12:19.699Z,94.43
2023-03-24T04:13:19.703Z,94.23
2023-03-24T04:14:19.713Z,94.64
2023-03-24T04:15:19.681Z,94.68
2023-03-24T04:16:19.721Z,94.89
2023-03-24T04:17:19.697Z,94.37
2023-03-24T04:18:19.664Z,94.78
2023-03-24T04:19:19.670Z,94.37
2023-03-24T04:20:19.642Z,94.27
2023-03-24T04:21:19.665Z,94.58
2023-03-24T04:22:19.634Z,94.48
2023-03-24T04:23:19.627Z,94.64
2023-03-24T04:24:19.611Z,94.89
2023-03-24T04:25:19.633Z,94.64
2023-03-24T04:26:19.568Z,94.89
2023-03-24T04:27:19.642Z,94.94
2023-03-24T04:28:19.566Z,94.12
2023-03-24T04:29:19.583Z,94.23
2023-03-24T04:30:19.584Z,94.53
2023-03-24T04:31:19.589Z,94.53
2023-03-24T04:32:19.515Z,94.58
2023-03-24T04:33:20.535Z,94.78
2023-03-24T04:34:19.524Z,94.58
2023-03-24T04:35:19.515Z,94.37
2023-03-24T04:36:19.510Z,94.43
2023-03-24T04:37:19.471Z,95.09
2023-03-24T04:38:19.501Z,94.37
2023-03-24T04:39:19.451Z,94.48
2023-03-24T04:40:19.473Z,94.74
2023-03-24T04:41:19.466Z,94.94
2023-03-24T04:42:19.430Z,94.58
2023-03-24T04:43:19.405Z,94.94
2023-03-24T04:44:19.461Z,94.98
2023-03-24T04:45:19.412Z,95.09
2023-03-24T04:46:19.451Z,94.84
2023-03-24T04:47:19.378Z,94.74
2023-03-24T04:48:19.381Z,95.04
2023-03-24T04:49:19.422Z,95.04
2023-03-24T04:50:19.325Z,94.43
2023-03-24T04:51:19.344Z,95.09
2023-03-24T04:52:19.367Z,95.25
2023-03-24T04:53:19.298Z,95.45
2023-03-24T04:54:19.338Z,95.35
2023-03-24T04:55:19.281Z,95.56
2023-03-24T04:56:19.289Z,95.65
2023-03-24T04:57:19.285Z,95.76
2023-03-24T04:58:19.263Z,95.86
2023-03-24T04:59:19.297Z,95.45
2023-03-24T05:00:19.234Z,95.76
2023-03-24T05:01:19.263Z,95.86
2023-03-24T05:02:21.581Z,95.45
2023-03-24T05:03:19.252Z,95.56
2023-03-24T05:04:20.266Z,95.15
2023-03-24T05:05:19.182Z,95.96
2023-03-24T05:06:19.208Z,95.86
2023-03-24T05:07:19.171Z,95.76
2023-03-24T05:08:19.182Z,95.65
2023-03-24T05:09:19.189Z,95.65
2023-03-24T05:10:21.755Z,95.45
2023-03-24T05:11:19.160Z,95.35
2023-03-24T05:12:19.122Z,95.76
2023-03-24T05:13:19.179Z,95.56
2023-03-24T05:14:20.124Z,95.65
2023-03-24T05:15:19.081Z,96.01
2023-03-24T05:16:19.130Z,95.86
2023-03-24T05:17:19.079Z,95.86
2023-03-24T05:18:19.101Z,96.06
2023-03-24T05:19:19.062Z,96.27
2023-03-24T05:20:19.038Z,96.31
2023-03-24T05:21:19.070Z,95.86
2023-03-24T05:22:19.012Z,96.17
2023-03-24T05:23:19.011Z,96.17
2023-03-24T05:24:19.023Z,96.01
2023-03-24T05:25:18.988Z,96.37
2023-03-24T05:26:18.993Z,96.06
2023-03-24T05:27:19.004Z,96.27
2023-03-24T05:28:18.985Z,95.96
2023-03-24T05:29:18.946Z,96.21
2023-03-24T05:30:18.957Z,96.06
2023-03-24T05:31:18.971Z,96.17
2023-03-24T05:32:18.933Z,95.96
2023-03-24T05:33:18.930Z,96.21
2023-03-24T05:34:18.930Z,96.21
2023-03-24T05:35:19.952Z,96.37
2023-03-24T05:36:18.954Z,96.06
2023-03-24T05:37:18.881Z,95.96
2023-03-24T05:38:18.915Z,96.06
2023-03-24T05:39:18.842Z,96.06
2023-03-24T05:40:18.924Z,96.27
2023-03-24T05:41:18.841Z,96.21
2023-03-24T05:42:18.866Z,96.17
2023-03-24T05:43:18.825Z,96.17
2023-03-24T05:44:18.839Z,96.06
2023-03-24T05:45:18.822Z,95.96
2023-03-24T05:46:18.853Z,95.96
2023-03-24T05:47:18.781Z,96.06
2023-03-24T05:48:18.791Z,95.96
2023-03-24T05:49:18.784Z,95.96
2023-03-24T05:50:18.749Z,96.06
2023-03-24T05:51:18.776Z,95.65
2023-03-24T05:52:18.728Z,95.56
2023-03-24T05:53:18.727Z,95.56
2023-03-24T05:54:18.732Z,95.96
2023-03-24T05:55:18.714Z,95.86
2023-03-24T05:56:18.676Z,95.61
2023-03-24T05:57:18.672Z,95.61
2023-03-24T05:58:18.643Z,96.06
2023-03-24T05:59:18.689Z,96.47
2023-03-24T06:00:18.657Z,96.06
2023-03-24T06:01:18.639Z,96.27
2023-03-24T06:02:18.665Z,96.06
2023-03-24T06:03:18.783Z,96.22
2023-03-24T06:04:18.620Z,96.17
2023-03-24T06:05:18.591Z,96.06
2023-03-24T06:06:18.651Z,96.27
2023-03-24T06:07:18.574Z,96.17
2023-03-24T06:08:18.604Z,96.27
2023-03-24T06:09:18.568Z,96.27
2023-03-24T06:10:18.564Z,96.06
2023-03-24T06:11:18.557Z,96.06
2023-03-24T06:12:18.538Z,96.06
2023-03-24T06:13:18.525Z,96.17
2023-03-24T06:14:18.524Z,96.12
2023-03-24T06:15:18.507Z,96.02
2023-03-24T06:16:18.494Z,96.02
2023-03-24T06:17:18.503Z,95.92
2023-03-24T06:18:18.534Z,96.17
2023-03-24T06:19:18.471Z,95.81
2023-03-24T06:20:18.436Z,96.06
2023-03-24T06:21:18.437Z,95.81
2023-03-24T06:22:18.533Z,95.92
2023-03-24T06:23:18.461Z,95.81
2023-03-24T06:24:18.450Z,95.92
2023-03-24T06:25:18.418Z,95.61
2023-03-24T06:26:18.383Z,95.61
2023-03-24T06:27:18.393Z,95.51
2023-03-24T06:28:18.377Z,95.51
2023-03-24T06:29:18.458Z,95.72
2023-03-24T06:30:18.372Z,95.36
2023-03-24T06:31:18.482Z,95.36
2023-03-24T06:32:18.396Z,95.36
2023-03-24T06:33:18.368Z,95.47
2023-03-24T06:34:18.481Z,95.06
2023-03-24T06:35:18.289Z,94.65
2023-03-24T06:36:18.268Z,94.34
2023-03-24T06:37:18.292Z,94.45
2023-03-24T06:38:18.290Z,94.55
2023-03-24T06:39:18.279Z,94.60
2023-03-24T06:40:18.283Z,94.34
2023-03-24T06:41:18.237Z,94.45
2023-03-24T06:42:18.223Z,94.04
2023-03-24T06:43:18.228Z,93.48
2023-03-24T06:44:18.231Z,93.93
2023-03-24T06:45:18.205Z,94.30
2023-03-24T06:46:18.278Z,93.59
2023-03-24T06:47:18.229Z,94.20
2023-03-24T06:48:18.159Z,93.99
2023-03-24T06:49:18.203Z,93.79
2023-03-24T06:50:18.199Z,94.20
2023-03-24T06:51:18.165Z,94.30
2023-03-24T06:52:18.133Z,94.40
2023-03-24T06:53:18.119Z,93.70
2023-03-24T06:54:18.142Z,92.33
2023-03-24T06:55:18.110Z,91.83
2023-03-24T06:56:18.141Z,91.62
2023-03-24T06:57:18.057Z,91.31
2023-03-24T06:58:18.087Z,90.66
2023-03-24T06:59:18.071Z,89.56
2023-03-24T07:00:18.028Z,88.60
2023-03-24T07:01:18.098Z,87.30
2023-03-24T07:02:18.033Z,86.49
2023-03-24T07:03:18.079Z,86.08
2023-03-24T07:04:18.065Z,86.33
2023-03-24T07:05:18.004Z,86.39
2023-03-24T07:06:17.996Z,85.90
2023-03-24T07:07:44.824Z,84.04
2023-03-24T07:08:36.487Z,84.89
2023-03-24T07:09:19.958Z,84.93
2023-03-24T07:10:17.938Z,85.64
2023-03-24T07:11:17.938Z,84.34
2023-03-24T07:12:17.967Z,80.98
2023-03-24T07:13:17.907Z,80.91
2023-03-24T07:14:17.910Z,80.30
2023-03-24T07:15:17.912Z,79.63
2023-03-24T07:16:17.910Z,80.47
2023-03-24T07:17:17.958Z,80.98
2023-03-24T07:18:17.917Z,81.09
2023-03-24T07:19:17.852Z,80.18
2023-03-24T07:20:17.835Z,81.73
2023-03-24T07:21:17.829Z,80.78
2023-03-24T07:22:17.848Z,80.88
2023-03-24T07:23:17.822Z,81.87
2023-03-24T07:24:17.800Z,82.76
2023-03-24T07:25:17.811Z,84.42
2023-03-24T07:26:17.786Z,84.56
2023-03-24T07:27:17.755Z,85.07
2023-03-24T07:28:17.799Z,85.17
2023-03-24T07:29:17.756Z,84.97
2023-03-24T07:30:20.570Z,84.93
2023-03-24T07:31:17.792Z,84.34
2023-03-24T07:32:17.724Z,82.24
2023-03-24T07:33:17.785Z,82.03
2023-03-24T07:34:17.686Z,82.17
2023-03-24T07:35:17.710Z,82.66
2023-03-24T07:36:17.730Z,83.23
2023-03-24T07:37:17.712Z,82.17
2023-03-24T07:38:17.687Z,81.79
2023-03-24T07:39:17.634Z,81.55
2023-03-24T07:40:17.674Z,80.64
2023-03-24T07:41:17.632Z,80.27
2023-03-24T07:42:17.677Z,80.78
2023-03-24T07:43:17.666Z,80.18
2023-03-24T07:44:17.593Z,79.67
2023-03-24T07:45:17.613Z,79.26
2023-03-24T07:46:17.686Z,80.27
2023-03-24T07:47:18.589Z,80.52
2023-03-24T07:48:17.581Z,81.12
2023-03-24T07:49:19.928Z,79.97
2023-03-24T07:50:18.557Z,81.09
2023-03-24T07:51:17.528Z,80.64
2023-03-24T07:52:17.581Z,78.88
2023-03-24T07:53:17.532Z,78.44
2023-03-24T07:54:17.544Z,78.81
2023-03-24T07:55:17.550Z,77.56
2023-03-24T07:56:17.532Z,77.84
2023-03-24T07:57:17.587Z,77.80
2023-03-24T07:58:17.890Z,77.39
2023-03-24T07:59:17.518Z,77.64
2023-03-24T08:00:17.437Z,77.77
2023-03-24T08:02:44.888Z,79.02
2023-03-24T08:03:44.887Z,79.26
2023-03-24T08:04:44.781Z,80.15
2023-03-24T08:05:44.763Z,81.16
2023-03-24T08:06:44.718Z,81.30
2023-03-24T08:07:44.787Z,81.81
2023-03-24T08:08:44.736Z,82.11
2023-03-24T08:09:44.705Z,81.64
2023-03-24T08:10:44.680Z,81.34
2023-03-24T08:11:44.659Z,82.15
2023-03-24T08:12:45.790Z,81.95
2023-03-24T08:13:45.799Z,82.66
2023-03-24T08:14:45.787Z,81.95
2023-03-24T08:15:46.011Z,82.15
2023-03-24T08:16:45.757Z,81.85
2023-03-24T08:17:45.741Z,81.99
2023-03-24T08:18:45.712Z,82.19
2023-03-24T08:19:58.506Z,81.95
2023-03-24T08:20:47.743Z,81.40
2023-03-24T08:21:45.687Z,81.13
2023-03-24T08:22:45.664Z,81.38
2023-03-24T08:23:45.676Z,82.15
2023-03-24T08:24:45.649Z,81.44
2023-03-24T08:25:45.977Z,82.05
2023-03-24T08:26:45.653Z,81.81
2023-03-24T08:27:45.652Z,81.20
2023-03-24T08:28:45.592Z,81.60
2023-03-24T08:29:45.626Z,80.63
2023-03-24T08:30:45.688Z,80.79
2023-03-24T08:31:45.637Z,81.40
2023-03-24T08:32:45.609Z,80.99
2023-03-24T08:33:45.579Z,79.78
2023-03-24T08:34:45.544Z,80.29
2023-03-24T08:35:45.786Z,80.19
2023-03-24T08:36:45.542Z,80.59
2023-03-24T08:37:45.509Z,80.39
2023-03-24T08:38:45.535Z,80.59
2023-03-24T08:39:45.512Z,80.93
2023-03-24T08:40:45.516Z,80.90
2023-03-24T08:41:45.506Z,81.34
2023-03-24T08:42:45.539Z,81.91
2023-03-24T08:43:45.486Z,81.13
2023-03-24T08:44:45.449Z,80.63
2023-03-24T08:45:45.556Z,80.12
2023-03-24T08:46:45.481Z,79.96
2023-03-24T08:47:45.437Z,76.03
2023-03-24T08:48:45.415Z,78.14
2023-03-24T08:49:45.441Z,77.94
2023-03-24T08:50:45.397Z,78.62
2023-03-24T08:51:45.551Z,79.02
2023-03-24T08:52:45.413Z,80.08
2023-03-24T08:53:45.373Z,79.88
2023-03-24T08:54:45.379Z,78.89
2023-03-24T08:55:45.685Z,79.44
2023-03-24T08:56:45.358Z,79.03
2023-03-24T08:57:45.303Z,79.38
2023-03-24T08:58:45.342Z,80.80
2023-03-24T08:59:45.313Z,80.91
2023-03-24T09:00:45.342Z,81.31
2023-03-24T09:01:45.309Z,79.52
2023-03-24T09:02:45.313Z,80.88
2023-03-24T09:03:45.279Z,80.94
2023-03-24T09:04:45.265Z,81.15
2023-03-24T09:05:45.288Z,80.98
2023-03-24T09:06:45.249Z,80.33
2023-03-24T09:07:45.215Z,79.52
2023-03-24T09:08:45.224Z,79.93
2023-03-24T09:09:45.201Z,79.21
2023-03-24T09:10:45.204Z,79.62
2023-03-24T09:11:45.235Z,80.13
2023-03-24T09:12:45.184Z,79.32
2023-03-24T09:13:45.153Z,79.27
2023-03-24T09:14:45.151Z,78.87
2023-03-24T09:15:45.293Z,78.46
2023-03-24T09:16:46.153Z,77.78
2023-03-24T09:17:45.172Z,77.78
2023-03-24T09:18:45.177Z,78.39
2023-03-24T09:19:45.150Z,78.60
2023-03-24T09:20:45.124Z,79.21
2023-03-24T09:21:45.090Z,77.89
2023-03-24T09:22:45.139Z,78.30
2023-03-24T09:23:45.109Z,78.50
2023-03-24T09:24:45.061Z,78.30
2023-03-24T09:25:45.096Z,77.89
2023-03-24T09:26:45.070Z,77.89
2023-03-24T09:27:45.107Z,78.30
2023-03-24T09:28:45.087Z,77.92
2023-03-24T09:29:48.135Z,79.14
2023-03-24T09:30:45.077Z,79.45
2023-03-24T09:31:45.088Z,80.37
2023-03-24T09:32:45.090Z,77.92
2023-03-24T09:33:44.964Z,79.86
2023-03-24T09:34:44.981Z,80.88
2023-03-24T09:35:45.037Z,80.88
2023-03-24T09:36:45.046Z,78.23
2023-03-24T09:37:45.035Z,80.00
2023-03-24T09:38:44.935Z,79.59
2023-03-24T09:39:44.911Z,80.10
2023-03-24T09:40:44.875Z,80.78
2023-03-24T09:41:44.927Z,81.12
2023-03-24T09:42:46.599Z,79.59
2023-03-24T09:43:44.914Z,80.41
2023-03-24T09:44:44.869Z,80.91
2023-03-24T09:45:44.864Z,80.91
2023-03-24T09:46:44.877Z,80.30
2023-03-24T09:47:44.841Z,81.32
2023-03-24T09:48:44.872Z,82.45
2023-03-24T09:49:44.829Z,82.45
2023-03-24T09:50:44.815Z,82.45
2023-03-24T09:51:44.817Z,82.18
2023-03-24T09:52:44.887Z,82.59
2023-03-24T09:53:44.784Z,83.92
2023-03-24T09:54:44.836Z,83.81
2023-03-24T09:55:44.770Z,83.95
2023-03-24T09:56:44.780Z,84.63
2023-03-24T09:57:44.748Z,85.45
2023-03-24T09:58:44.734Z,84.83
2023-03-24T09:59:44.725Z,83.71
2023-03-24T10:00:44.735Z,84.53
2023-03-24T10:01:44.722Z,83.81
2023-03-24T10:02:44.792Z,84.26
2023-03-24T10:03:44.828Z,85.49
2023-03-24T10:04:44.740Z,86.20
2023-03-24T10:05:44.632Z,85.18
2023-03-24T10:06:44.729Z,85.73
2023-03-24T10:07:44.640Z,85.38
2023-03-24T10:08:44.664Z,85.59
2023-03-24T10:09:44.642Z,86.20
2023-03-24T10:10:44.609Z,86.82
2023-03-24T10:11:44.641Z,86.41
2023-03-24T10:12:44.584Z,85.59
2023-03-24T10:13:44.592Z,85.59
2023-03-24T10:14:44.622Z,85.08
2023-03-24T10:15:44.580Z,84.06
2023-03-24T10:16:44.562Z,85.32
2023-03-24T10:17:44.667Z,85.38
2023-03-24T10:18:44.545Z,85.49
2023-03-24T10:19:44.531Z,86.20
2023-03-24T10:20:44.563Z,86.26
2023-03-24T10:21:44.565Z,84.74
2023-03-24T10:22:44.521Z,84.94
2023-03-24T10:23:44.511Z,84.53
2023-03-24T10:24:44.500Z,85.04
2023-03-24T10:25:44.488Z,84.83
2023-03-24T10:26:44.486Z,84.49
2023-03-24T10:27:44.472Z,84.80
2023-03-24T10:28:44.445Z,83.20
2023-03-24T10:29:44.424Z,84.42
2023-03-24T10:30:45.328Z,85.00
2023-03-24T10:31:45.568Z,85.30
2023-03-24T10:32:44.428Z,85.71
2023-03-24T10:33:44.400Z,84.80
2023-03-24T10:34:44.365Z,84.75
2023-03-24T10:35:44.382Z,84.45
2023-03-24T10:36:44.390Z,83.84
2023-03-24T10:37:44.360Z,84.34
2023-03-24T10:38:44.370Z,81.90
2023-03-24T10:39:45.269Z,83.26
2023-03-24T10:40:45.389Z,84.18
2023-03-24T10:41:44.313Z,83.67
2023-03-24T10:42:44.310Z,83.67
2023-03-24T10:43:44.288Z,84.69
2023-03-24T10:44:44.297Z,85.71
2023-03-24T10:45:44.368Z,85.35
2023-03-24T10:46:44.277Z,84.94
2023-03-24T10:47:44.323Z,85.24
2023-03-24T10:48:44.282Z,86.16
2023-03-24T10:49:44.278Z,86.67
2023-03-24T10:50:44.278Z,87.12
2023-03-24T10:51:44.263Z,86.61
2023-03-24T10:52:44.203Z,86.91
2023-03-24T10:53:44.221Z,86.91
2023-03-24T10:54:44.250Z,87.26
2023-03-24T10:55:44.175Z,88.29
2023-03-24T10:56:44.189Z,88.74
2023-03-24T10:57:44.192Z,89.65
2023-03-24T10:58:44.181Z,89.51
2023-03-24T10:59:44.197Z,90.33
2023-03-24T11:00:44.134Z,89.56
2023-03-24T11:01:44.187Z,90.06
2023-03-24T11:02:44.242Z,89.35
2023-03-24T11:03:44.146Z,88.68
2023-03-24T11:04:44.127Z,89.65
2023-03-24T11:05:44.075Z,89.35
2023-03-24T11:06:44.090Z,89.80
2023-03-24T11:07:44.059Z,90.21
2023-03-24T11:08:44.125Z,89.70
2023-03-24T11:09:44.032Z,90.00
2023-03-24T11:10:44.060Z,89.39
2023-03-24T11:11:44.031Z,90.31
2023-03-24T11:12:44.025Z,90.21
2023-03-24T11:13:44.053Z,90.25
2023-03-24T11:14:43.996Z,90.56
2023-03-24T11:15:43.996Z,90.31
2023-03-24T11:16:44.001Z,90.82
2023-03-24T11:17:44.050Z,90.92
2023-03-24T11:18:43.936Z,90.31
2023-03-24T11:19:43.961Z,90.68
2023-03-24T11:20:43.948Z,91.09
2023-03-24T11:21:43.986Z,91.15
2023-03-24T11:22:43.963Z,90.59
2023-03-24T11:23:43.986Z,89.37
2023-03-24T11:24:43.933Z,88.65
2023-03-24T11:25:43.967Z,88.65
2023-03-24T11:26:43.931Z,89.23
2023-03-24T11:27:43.923Z,87.49
2023-03-24T11:28:43.881Z,87.90
2023-03-24T11:29:43.868Z,89.28
2023-03-24T11:30:45.725Z,88.43
2023-03-24T11:31:44.942Z,87.51
2023-03-24T11:32:43.875Z,87.71
2023-03-24T11:33:43.818Z,87.00
2023-03-24T11:34:43.769Z,87.67
2023-03-24T11:35:44.957Z,86.65
2023-03-24T11:36:46.886Z,86.65
2023-03-24T11:37:44.758Z,86.45
2023-03-24T11:38:43.774Z,86.55
2023-03-24T11:39:43.728Z,86.45
2023-03-24T11:40:43.727Z,86.24
2023-03-24T11:41:43.720Z,86.96
2023-03-24T11:42:45.408Z,87.26
2023-03-24T11:43:44.717Z,87.16
2023-03-24T11:44:43.758Z,87.32
2023-03-24T11:45:43.691Z,86.45
2023-03-24T11:46:43.708Z,86.41
2023-03-24T11:47:43.723Z,86.92
2023-03-24T11:48:43.661Z,86.41
2023-03-24T11:49:43.669Z,86.21
2023-03-24T11:50:43.645Z,86.76
2023-03-24T11:51:43.637Z,86.04
2023-03-24T11:52:43.631Z,86.24
2023-03-24T11:53:43.605Z,85.43
2023-03-24T11:54:43.595Z,86.30
2023-03-24T11:55:43.608Z,85.25
2023-03-24T11:56:43.656Z,84.74
2023-03-24T11:57:43.622Z,84.64
2023-03-24T11:58:43.590Z,84.78
2023-03-24T11:59:43.571Z,84.94
2023-03-24T12:00:43.533Z,83.86
2023-03-24T12:01:43.534Z,83.90
2023-03-24T12:02:43.566Z,84.72
2023-03-24T12:03:43.617Z,83.59
2023-03-24T12:04:43.525Z,84.61
2023-03-24T12:05:43.538Z,83.29
2023-03-24T12:06:43.493Z,84.41
2023-03-24T12:07:43.465Z,83.70
2023-03-24T12:08:43.503Z,84.31
2023-03-24T12:09:43.432Z,83.70
2023-03-24T12:10:43.468Z,84.41
2023-03-24T12:11:43.433Z,83.29
2023-03-24T12:12:43.411Z,82.47
2023-03-24T12:13:43.412Z,82.31
2023-03-24T12:14:43.508Z,83.84
2023-03-24T12:15:43.423Z,83.43
2023-03-24T12:16:43.435Z,83.63
2023-03-24T12:17:43.553Z,83.39
2023-03-24T12:18:43.491Z,82.33
2023-03-24T12:19:43.331Z,81.79
2023-03-24T12:20:43.368Z,81.85
2023-03-24T12:21:43.422Z,80.90
2023-03-24T12:22:43.350Z,80.08
2023-03-24T12:23:43.352Z,79.43
2023-03-24T12:24:43.353Z,79.98
2023-03-24T12:25:43.279Z,78.35
2023-03-24T12:26:43.278Z,79.00
2023-03-24T12:27:43.304Z,79.00
2023-03-24T12:28:43.281Z,79.34
2023-03-24T12:29:43.295Z,79.30
2023-03-24T12:30:43.261Z,79.00
2023-03-24T12:31:43.322Z,79.20
2023-03-24T12:32:43.296Z,79.50
2023-03-24T12:33:43.211Z,79.30
2023-03-24T12:34:43.262Z,79.41
2023-03-24T12:35:43.247Z,78.39
2023-03-24T12:36:43.210Z,78.39
2023-03-24T12:37:43.172Z,78.19
2023-03-24T12:38:43.141Z,78.05
2023-03-24T12:39:43.210Z,79.06
2023-03-24T12:40:43.153Z,78.38
2023-03-24T12:41:43.163Z,78.44
2023-03-24T12:42:43.170Z,78.47
2023-03-24T12:43:43.096Z,77.42
2023-03-24T12:44:43.145Z,72.58
2023-03-24T12:45:43.130Z,72.48
2023-03-24T12:47:44.130Z,72.48
2023-03-24T12:48:43.065Z,72.04
2023-03-24T12:49:43.053Z,72.45
2023-03-24T12:50:43.111Z,71.91
2023-03-24T12:51:43.136Z,71.91
2023-03-24T12:52:43.816Z,70.96
2023-03-24T12:53:42.990Z,69.64
2023-03-24T12:54:43.015Z,69.84